sensor_id;sensor_type;location;lat;lon;timestamp;pressure;altitude;pressure_sealevel;temperature;humidity
60371;BME280;48550;40.588;49.684;2023-05-19T00:01:06;101387.72;;;15.08;100.00
60371;BME280;48550;40.588;49.684;2023-05-19T00:03:33;101381.75;;;15.06;100.00
60371;BME280;48550;40.588;49.684;2023-05-19T00:06:01;101380.69;;;15.07;100.00
60371;BME280;48550;40.588;49.684;2023-05-19T00:08:30;101385.75;;;15.03;100.00
60371;BME280;48550;40.588;49.684;2023-05-19T00:10:57;101381.41;;;15.02;100.00
60371;BME280;48550;40.588;49.684;2023-05-19T00:13:23;101378.38;;;14.99;100.00
60371;BME280;48550;40.588;49.684;2023-05-19T00:15:49;101376.50;;;14.99;100.00
60371;BME280;48550;40.588;49.684;2023-05-19T00:18:15;101393.47;;;14.94;100.00
60371;BME280;48550;40.588;49.684;2023-05-19T00:20:42;101405.13;;;14.83;100.00
60371;BME280;48550;40.588;49.684;2023-05-19T00:23:09;101397.19;;;14.77;100.00
60371;BME280;48550;40.588;49.684;2023-05-19T00:25:35;101394.47;;;14.77;100.00
60371;BME280;48550;40.588;49.684;2023-05-19T00:28:01;101396.94;;;14.78;100.00
60371;BME280;48550;40.588;49.684;2023-05-19T00:30:28;101392.09;;;14.80;100.00
60371;BME280;48550;40.588;49.684;2023-05-19T00:32:54;101403.00;;;14.85;100.00
60371;BME280;48550;40.588;49.684;2023-05-19T00:35:20;101397.16;;;14.88;100.00
60371;BME280;48550;40.588;49.684;2023-05-19T00:37:47;101404.44;;;14.88;100.00
60371;BME280;48550;40.588;49.684;2023-05-19T00:40:13;101396.41;;;14.93;100.00
60371;BME280;48550;40.588;49.684;2023-05-19T00:42:39;101391.25;;;14.91;100.00
60371;BME280;48550;40.588;49.684;2023-05-19T00:45:06;101392.56;;;14.89;100.00
60371;BME280;48550;40.588;49.684;2023-05-19T00:47:32;101384.22;;;14.90;100.00
60371;BME280;48550;40.588;49.684;2023-05-19T00:49:58;101387.16;;;14.89;100.00
60371;BME280;48550;40.588;49.684;2023-05-19T00:52:24;101378.69;;;14.85;100.00
60371;BME280;48550;40.588;49.684;2023-05-19T00:54:51;101394.56;;;14.82;100.00
60371;BME280;48550;40.588;49.684;2023-05-19T00:57:17;101389.50;;;14.85;100.00
60371;BME280;48550;40.588;49.684;2023-05-19T00:59:43;101380.94;;;14.88;100.00
60371;BME280;48550;40.588;49.684;2023-05-19T01:02:09;101383.50;;;14.83;100.00
60371;BME280;48550;40.588;49.684;2023-05-19T01:04:37;101375.41;;;14.83;100.00
60371;BME280;48550;40.588;49.684;2023-05-19T01:07:06;101388.34;;;14.81;100.00
60371;BME280;48550;40.588;49.684;2023-05-19T01:09:32;101375.91;;;14.80;100.00
60371;BME280;48550;40.588;49.684;2023-05-19T01:11:59;101381.88;;;14.82;100.00
60371;BME280;48550;40.588;49.684;2023-05-19T01:14:28;101384.22;;;14.90;100.00
60371;BME280;48550;40.588;49.684;2023-05-19T01:17:05;101386.34;;;14.88;100.00
60371;BME280;48550;40.588;49.684;2023-05-19T01:25:21;101366.91;;;14.91;100.00
60371;BME280;48550;40.588;49.684;2023-05-19T01:28:11;101382.56;;;14.89;100.00
60371;BME280;48550;40.588;49.684;2023-05-19T01:30:42;101373.63;;;14.89;100.00
60371;BME280;48550;40.588;49.684;2023-05-19T01:33:10;101384.44;;;14.89;100.00
60371;BME280;48550;40.588;49.684;2023-05-19T01:35:39;101370.44;;;14.92;100.00
60371;BME280;48550;40.588;49.684;2023-05-19T01:38:10;101379.88;;;14.89;100.00
60371;BME280;48550;40.588;49.684;2023-05-19T01:40:38;101381.00;;;14.93;100.00
60371;BME280;48550;40.588;49.684;2023-05-19T01:43:06;101383.47;;;14.95;100.00
60371;BME280;48550;40.588;49.684;2023-05-19T01:45:32;101381.19;;;15.04;99.44
60371;BME280;48550;40.588;49.684;2023-05-19T01:48:00;101384.63;;;15.16;95.95
60371;BME280;48550;40.588;49.684;2023-05-19T01:50:27;101381.97;;;15.21;93.44
60371;BME280;48550;40.588;49.684;2023-05-19T01:52:53;101383.94;;;15.25;92.92
60371;BME280;48550;40.588;49.684;2023-05-19T01:55:20;101388.03;;;15.28;97.72
60371;BME280;48550;40.588;49.684;2023-05-19T01:58:30;101383.28;;;15.35;99.10
60371;BME280;48550;40.588;49.684;2023-05-19T02:07:02;101403.47;;;15.61;90.88
60371;BME280;48550;40.588;49.684;2023-05-19T02:10:03;101419.03;;;15.71;90.09
60371;BME280;48550;40.588;49.684;2023-05-19T02:12:38;101414.88;;;15.85;87.26
60371;BME280;48550;40.588;49.684;2023-05-19T02:15:14;101404.44;;;15.94;89.24
60371;BME280;48550;40.588;49.684;2023-05-19T02:17:42;101406.44;;;16.03;84.03
60371;BME280;48550;40.588;49.684;2023-05-19T02:20:13;101417.16;;;16.15;82.32
60371;BME280;48550;40.588;49.684;2023-05-19T02:22:39;101417.53;;;16.24;80.10
60371;BME280;48550;40.588;49.684;2023-05-19T02:25:05;101406.31;;;16.37;81.03
60371;BME280;48550;40.588;49.684;2023-05-19T02:27:32;101406.22;;;16.53;82.29
60371;BME280;48550;40.588;49.684;2023-05-19T02:29:58;101407.75;;;16.66;75.96
60371;BME280;48550;40.588;49.684;2023-05-19T02:32:24;101413.03;;;16.83;76.13
60371;BME280;48550;40.588;49.684;2023-05-19T02:34:49;101416.72;;;16.99;74.35
60371;BME280;48550;40.588;49.684;2023-05-19T02:37:15;101410.81;;;17.07;72.57
60371;BME280;48550;40.588;49.684;2023-05-19T02:39:42;101416.31;;;17.12;75.99
60371;BME280;48550;40.588;49.684;2023-05-19T02:42:08;101399.09;;;17.33;78.80
60371;BME280;48550;40.588;49.684;2023-05-19T02:44:35;101406.19;;;17.39;67.38
60371;BME280;48550;40.588;49.684;2023-05-19T02:47:01;101404.00;;;17.36;66.70
60371;BME280;48550;40.588;49.684;2023-05-19T02:49:27;101403.28;;;17.51;67.18
60371;BME280;48550;40.588;49.684;2023-05-19T02:51:55;101402.09;;;17.79;67.26
60371;BME280;48550;40.588;49.684;2023-05-19T02:54:21;101407.66;;;17.94;64.92
60371;BME280;48550;40.588;49.684;2023-05-19T02:56:47;101402.84;;;18.22;65.21
60371;BME280;48550;40.588;49.684;2023-05-19T02:59:13;101400.72;;;18.34;69.37
60371;BME280;48550;40.588;49.684;2023-05-19T03:01:38;101405.41;;;18.59;67.49
60371;BME280;48550;40.588;49.684;2023-05-19T03:04:04;101405.22;;;18.81;65.52
60371;BME280;48550;40.588;49.684;2023-05-19T03:06:30;101407.94;;;19.01;61.59
60371;BME280;48550;40.588;49.684;2023-05-19T03:08:57;101413.91;;;19.28;62.17
60371;BME280;48550;40.588;49.684;2023-05-19T03:11:23;101413.84;;;19.79;60.19
60371;BME280;48550;40.588;49.684;2023-05-19T03:13:49;101423.63;;;19.90;58.67
60371;BME280;48550;40.588;49.684;2023-05-19T03:16:14;101423.03;;;19.98;59.84
60371;BME280;48550;40.588;49.684;2023-05-19T03:18:40;101418.13;;;20.06;57.09
60371;BME280;48550;40.588;49.684;2023-05-19T03:21:06;101422.50;;;20.02;56.60
60371;BME280;48550;40.588;49.684;2023-05-19T03:23:32;101431.66;;;20.31;54.94
60371;BME280;48550;40.588;49.684;2023-05-19T03:25:57;101432.09;;;20.53;52.35
60371;BME280;48550;40.588;49.684;2023-05-19T03:28:23;101423.19;;;20.87;50.33
60371;BME280;48550;40.588;49.684;2023-05-19T03:30:51;101420.16;;;20.88;51.10
60371;BME280;48550;40.588;49.684;2023-05-19T03:33:17;101423.47;;;20.80;52.03
60371;BME280;48550;40.588;49.684;2023-05-19T03:35:43;101424.47;;;20.94;52.18
60371;BME280;48550;40.588;49.684;2023-05-19T03:38:09;101430.72;;;21.00;50.95
60371;BME280;48550;40.588;49.684;2023-05-19T03:40:35;101437.03;;;21.30;51.20
60371;BME280;48550;40.588;49.684;2023-05-19T03:43:00;101447.84;;;21.98;48.12
60371;BME280;48550;40.588;49.684;2023-05-19T03:45:27;101458.78;;;22.45;45.76
60371;BME280;48550;40.588;49.684;2023-05-19T03:47:52;101468.41;;;22.99;44.34
60371;BME280;48550;40.588;49.684;2023-05-19T03:50:18;101464.63;;;24.20;41.54
60371;BME280;48550;40.588;49.684;2023-05-19T03:52:44;101463.94;;;25.14;39.38
60371;BME280;48550;40.588;49.684;2023-05-19T03:55:11;101471.00;;;25.82;38.23
60371;BME280;48550;40.588;49.684;2023-05-19T03:57:39;101472.25;;;25.45;38.21
60371;BME280;48550;40.588;49.684;2023-05-19T04:00:06;101465.94;;;25.00;39.76
60371;BME280;48550;40.588;49.684;2023-05-19T04:02:32;101462.72;;;24.84;39.87
60371;BME280;48550;40.588;49.684;2023-05-19T04:04:58;101456.91;;;24.99;40.59
60371;BME280;48550;40.588;49.684;2023-05-19T04:07:24;101454.25;;;24.94;40.17
60371;BME280;48550;40.588;49.684;2023-05-19T04:09:50;101448.97;;;25.20;39.07
60371;BME280;48550;40.588;49.684;2023-05-19T04:12:15;101462.72;;;25.74;37.76
60371;BME280;48550;40.588;49.684;2023-05-19T04:14:41;101457.47;;;25.94;37.61
60371;BME280;48550;40.588;49.684;2023-05-19T04:17:07;101442.66;;;24.97;39.05
60371;BME280;48550;40.588;49.684;2023-05-19T04:19:33;101447.09;;;25.29;39.37
60371;BME280;48550;40.588;49.684;2023-05-19T04:21:58;101443.72;;;25.63;37.88
60371;BME280;48550;40.588;49.684;2023-05-19T04:24:24;101438.53;;;25.62;36.94
60371;BME280;48550;40.588;49.684;2023-05-19T04:26:50;101451.75;;;26.31;35.42
60371;BME280;48550;40.588;49.684;2023-05-19T04:29:16;101440.09;;;26.25;35.30
60371;BME280;48550;40.588;49.684;2023-05-19T04:31:43;101431.34;;;25.75;36.58
60371;BME280;48550;40.588;49.684;2023-05-19T04:34:09;101473.56;;;25.03;38.25
60371;BME280;48550;40.588;49.684;2023-05-19T04:36:35;101473.97;;;24.19;39.45
60371;BME280;48550;40.588;49.684;2023-05-19T04:39:02;101479.75;;;23.44;40.28
60371;BME280;48550;40.588;49.684;2023-05-19T04:41:33;101468.50;;;23.13;43.92
60371;BME280;48550;40.588;49.684;2023-05-19T04:43:59;101454.50;;;22.96;41.90
60371;BME280;48550;40.588;49.684;2023-05-19T04:46:25;101452.34;;;22.74;42.58
60371;BME280;48550;40.588;49.684;2023-05-19T04:48:51;101441.78;;;22.48;49.75
60371;BME280;48550;40.588;49.684;2023-05-19T04:51:19;101448.28;;;21.81;53.61
60371;BME280;48550;40.588;49.684;2023-05-19T04:53:45;101449.75;;;21.10;80.91
60371;BME280;48550;40.588;49.684;2023-05-19T04:56:11;101453.91;;;19.74;100.00
60371;BME280;48550;40.588;49.684;2023-05-19T04:58:40;101467.09;;;20.31;100.00
60371;BME280;48550;40.588;49.684;2023-05-19T05:01:08;101470.03;;;20.50;91.11
60371;BME280;48550;40.588;49.684;2023-05-19T05:03:34;101480.97;;;20.45;92.24
60371;BME280;48550;40.588;49.684;2023-05-19T05:06:00;101474.00;;;19.93;100.00
60371;BME280;48550;40.588;49.684;2023-05-19T05:08:26;101494.00;;;21.02;91.56
60371;BME280;48550;40.588;49.684;2023-05-19T05:10:52;101505.63;;;22.81;76.25
60371;BME280;48550;40.588;49.684;2023-05-19T05:13:21;101513.53;;;22.40;86.22
60371;BME280;48550;40.588;49.684;2023-05-19T05:15:47;101529.03;;;22.69;97.00
60371;BME280;48550;40.588;49.684;2023-05-19T05:18:14;101531.63;;;22.12;100.00
60371;BME280;48550;40.588;49.684;2023-05-19T05:20:44;101531.13;;;21.76;100.00
60371;BME280;48550;40.588;49.684;2023-05-19T05:23:11;101525.75;;;22.48;100.00
60371;BME280;48550;40.588;49.684;2023-05-19T05:25:41;101517.66;;;22.14;100.00
60371;BME280;48550;40.588;49.684;2023-05-19T05:28:06;101518.91;;;23.63;84.65
60371;BME280;48550;40.588;49.684;2023-05-19T05:30:33;101518.47;;;23.89;75.35
60371;BME280;48550;40.588;49.684;2023-05-19T05:32:59;101512.38;;;24.05;74.57
60371;BME280;48550;40.588;49.684;2023-05-19T05:35:26;101517.53;;;23.80;71.49
60371;BME280;48550;40.588;49.684;2023-05-19T05:37:52;101508.13;;;24.68;67.36
60371;BME280;48550;40.588;49.684;2023-05-19T05:40:19;101516.88;;;24.29;69.54
60371;BME280;48550;40.588;49.684;2023-05-19T05:42:45;101507.38;;;24.76;67.56
60371;BME280;48550;40.588;49.684;2023-05-19T05:45:11;101512.28;;;23.97;68.59
60371;BME280;48550;40.588;49.684;2023-05-19T05:47:36;101509.75;;;25.05;58.97
60371;BME280;48550;40.588;49.684;2023-05-19T05:50:08;101505.13;;;26.12;52.98
60371;BME280;48550;40.588;49.684;2023-05-19T05:52:35;101498.66;;;25.77;54.71
60371;BME280;48550;40.588;49.684;2023-05-19T05:55:02;101498.50;;;25.29;58.88
60371;BME280;48550;40.588;49.684;2023-05-19T05:57:28;101497.56;;;24.20;68.30
60371;BME280;48550;40.588;49.684;2023-05-19T05:59:55;101500.31;;;25.33;64.10
60371;BME280;48550;40.588;49.684;2023-05-19T06:02:21;101496.75;;;25.33;64.94
60371;BME280;48550;40.588;49.684;2023-05-19T06:04:47;101496.28;;;24.81;68.78
60371;BME280;48550;40.588;49.684;2023-05-19T06:07:13;101482.75;;;24.85;68.64
60371;BME280;48550;40.588;49.684;2023-05-19T06:09:38;101489.00;;;25.35;64.61
60371;BME280;48550;40.588;49.684;2023-05-19T06:12:04;101488.28;;;24.71;64.42
60371;BME280;48550;40.588;49.684;2023-05-19T06:14:31;101499.50;;;24.97;68.50
60371;BME280;48550;40.588;49.684;2023-05-19T06:16:56;101498.50;;;24.93;64.06
60371;BME280;48550;40.588;49.684;2023-05-19T06:19:22;101501.72;;;24.59;68.38
60371;BME280;48550;40.588;49.684;2023-05-19T06:21:50;101496.66;;;25.02;66.92
60371;BME280;48550;40.588;49.684;2023-05-19T06:24:16;101495.13;;;24.19;75.74
60371;BME280;48550;40.588;49.684;2023-05-19T06:26:41;101490.59;;;25.58;67.68
60371;BME280;48550;40.588;49.684;2023-05-19T06:29:07;101490.00;;;25.39;65.95
60371;BME280;48550;40.588;49.684;2023-05-19T06:31:33;101499.22;;;25.21;66.97
60371;BME280;48550;40.588;49.684;2023-05-19T06:33:58;101481.91;;;24.34;73.83
60371;BME280;48550;40.588;49.684;2023-05-19T06:36:24;101493.47;;;24.73;70.11
60371;BME280;48550;40.588;49.684;2023-05-19T06:38:50;101486.13;;;24.82;69.47
60371;BME280;48550;40.588;49.684;2023-05-19T06:41:16;101487.66;;;24.74;70.02
60371;BME280;48550;40.588;49.684;2023-05-19T06:43:42;101482.09;;;23.83;72.63
60371;BME280;48550;40.588;49.684;2023-05-19T06:46:08;101481.69;;;24.45;69.23
60371;BME280;48550;40.588;49.684;2023-05-19T06:48:33;101479.19;;;24.34;69.23
60371;BME280;48550;40.588;49.684;2023-05-19T06:50:59;101472.69;;;24.30;69.37
60371;BME280;48550;40.588;49.684;2023-05-19T06:53:25;101475.81;;;23.96;70.32
60371;BME280;48550;40.588;49.684;2023-05-19T06:55:51;101485.94;;;23.17;75.75
60371;BME280;48550;40.588;49.684;2023-05-19T06:58:17;101480.50;;;24.37;66.42
60371;BME280;48550;40.588;49.684;2023-05-19T07:00:42;101488.72;;;23.96;65.65
60371;BME280;48550;40.588;49.684;2023-05-19T07:03:09;101500.41;;;24.15;67.63
60371;BME280;48550;40.588;49.684;2023-05-19T07:05:35;101498.38;;;24.21;65.83
60371;BME280;48550;40.588;49.684;2023-05-19T07:08:00;101491.19;;;24.88;56.96
60371;BME280;48550;40.588;49.684;2023-05-19T07:10:27;101491.75;;;24.08;62.00
60371;BME280;48550;40.588;49.684;2023-05-19T07:12:52;101482.22;;;24.47;58.04
60371;BME280;48550;40.588;49.684;2023-05-19T07:15:18;101490.25;;;24.43;57.01
60371;BME280;48550;40.588;49.684;2023-05-19T07:17:44;101486.38;;;24.58;55.45
60371;BME280;48550;40.588;49.684;2023-05-19T07:20:10;101481.47;;;24.68;52.26
60371;BME280;48550;40.588;49.684;2023-05-19T07:22:36;101490.09;;;23.47;57.59
60371;BME280;48550;40.588;49.684;2023-05-19T07:25:05;101480.97;;;24.25;52.23
60371;BME280;48550;40.588;49.684;2023-05-19T07:27:31;101480.78;;;24.22;50.80
60371;BME280;48550;40.588;49.684;2023-05-19T07:29:57;101482.91;;;24.52;48.26
60371;BME280;48550;40.588;49.684;2023-05-19T07:32:22;101486.88;;;24.05;48.66
60371;BME280;48550;40.588;49.684;2023-05-19T07:34:48;101495.19;;;23.86;48.28
60371;BME280;48550;40.588;49.684;2023-05-19T07:37:14;101497.06;;;23.58;50.60
60371;BME280;48550;40.588;49.684;2023-05-19T07:39:41;101497.28;;;23.75;47.12
60371;BME280;48550;40.588;49.684;2023-05-19T07:42:07;101498.28;;;24.39;45.87
60371;BME280;48550;40.588;49.684;2023-05-19T07:44:32;101496.97;;;24.37;46.66
60371;BME280;48550;40.588;49.684;2023-05-19T07:47:00;101488.22;;;23.94;49.15
60371;BME280;48550;40.588;49.684;2023-05-19T07:49:26;101485.78;;;23.27;50.15
60371;BME280;48550;40.588;49.684;2023-05-19T07:51:52;101480.94;;;22.20;55.59
60371;BME280;48550;40.588;49.684;2023-05-19T07:54:19;101484.34;;;21.83;55.99
60371;BME280;48550;40.588;49.684;2023-05-19T07:56:45;101483.28;;;21.50;60.77
60371;BME280;48550;40.588;49.684;2023-05-19T07:59:13;101491.94;;;21.62;56.19
60371;BME280;48550;40.588;49.684;2023-05-19T08:01:38;101481.53;;;21.64;59.25
60371;BME280;48550;40.588;49.684;2023-05-19T08:04:04;101480.69;;;21.35;61.88
60371;BME280;48550;40.588;49.684;2023-05-19T08:06:30;101488.44;;;21.17;59.97
60371;BME280;48550;40.588;49.684;2023-05-19T08:08:56;101480.25;;;21.22;59.04
60371;BME280;48550;40.588;49.684;2023-05-19T08:11:21;101483.84;;;21.13;57.53
60371;BME280;48550;40.588;49.684;2023-05-19T08:13:47;101482.06;;;20.93;61.35
60371;BME280;48550;40.588;49.684;2023-05-19T08:16:14;101492.09;;;21.03;58.48
60371;BME280;48550;40.588;49.684;2023-05-19T08:18:40;101486.53;;;21.23;58.50
60371;BME280;48550;40.588;49.684;2023-05-19T08:21:06;101483.56;;;21.14;63.14
60371;BME280;48550;40.588;49.684;2023-05-19T08:23:32;101473.41;;;20.81;65.94
60371;BME280;48550;40.588;49.684;2023-05-19T08:25:58;101481.06;;;21.18;64.30
60371;BME280;48550;40.588;49.684;2023-05-19T08:28:23;101466.72;;;21.02;67.14
60371;BME280;48550;40.588;49.684;2023-05-19T08:30:49;101464.09;;;20.87;66.63
60371;BME280;48550;40.588;49.684;2023-05-19T08:33:17;101461.09;;;20.39;70.16
60371;BME280;48550;40.588;49.684;2023-05-19T08:35:45;101463.31;;;20.81;71.73
60371;BME280;48550;40.588;49.684;2023-05-19T08:38:10;101452.19;;;20.68;70.63
60371;BME280;48550;40.588;49.684;2023-05-19T08:40:37;101450.34;;;20.58;78.94
60371;BME280;48550;40.588;49.684;2023-05-19T08:43:06;101448.97;;;20.60;76.38
60371;BME280;48550;40.588;49.684;2023-05-19T08:45:32;101455.47;;;20.70;81.86
60371;BME280;48550;40.588;49.684;2023-05-19T08:48:03;101455.88;;;20.38;86.69
60371;BME280;48550;40.588;49.684;2023-05-19T08:50:29;101466.44;;;20.59;87.25
60371;BME280;48550;40.588;49.684;2023-05-19T08:53:12;101463.38;;;20.66;87.24
60371;BME280;48550;40.588;49.684;2023-05-19T08:56:22;101455.66;;;20.29;95.39
60371;BME280;48550;40.588;49.684;2023-05-19T08:58:29;101458.47;;;19.93;100.00
60371;BME280;48550;40.588;49.684;2023-05-19T09:00:56;101454.03;;;20.28;100.00
60371;BME280;48550;40.588;49.684;2023-05-19T09:03:24;101451.34;;;20.18;100.00
60371;BME280;48550;40.588;49.684;2023-05-19T09:05:51;101463.91;;;20.09;98.37
60371;BME280;48550;40.588;49.684;2023-05-19T09:08:16;101449.16;;;20.15;100.00
60371;BME280;48550;40.588;49.684;2023-05-19T09:10:42;101458.00;;;19.51;100.00
60371;BME280;48550;40.588;49.684;2023-05-19T09:13:08;101461.72;;;20.00;98.73
60371;BME280;48550;40.588;49.684;2023-05-19T09:15:34;101454.66;;;20.10;98.77
60371;BME280;48550;40.588;49.684;2023-05-19T09:18:11;101449.69;;;20.22;99.06
60371;BME280;48550;40.588;49.684;2023-05-19T09:20:41;101440.25;;;19.84;100.00
60371;BME280;48550;40.588;49.684;2023-05-19T09:23:12;101430.94;;;20.10;100.00
60371;BME280;48550;40.588;49.684;2023-05-19T09:25:48;101431.13;;;20.29;100.00
60371;BME280;48550;40.588;49.684;2023-05-19T09:28:22;101435.78;;;20.23;100.00
60371;BME280;48550;40.588;49.684;2023-05-19T09:30:48;101433.09;;;20.13;100.00
60371;BME280;48550;40.588;49.684;2023-05-19T09:33:18;101432.28;;;20.13;100.00
60371;BME280;48550;40.588;49.684;2023-05-19T09:35:46;101430.97;;;19.95;100.00
60371;BME280;48550;40.588;49.684;2023-05-19T09:38:16;101430.09;;;20.05;100.00
60371;BME280;48550;40.588;49.684;2023-05-19T09:40:43;101429.06;;;19.90;100.00
60371;BME280;48550;40.588;49.684;2023-05-19T09:43:08;101425.47;;;20.05;100.00
60371;BME280;48550;40.588;49.684;2023-05-19T09:45:34;101421.94;;;20.05;100.00
60371;BME280;48550;40.588;49.684;2023-05-19T09:48:04;101430.69;;;20.07;100.00
60371;BME280;48550;40.588;49.684;2023-05-19T09:50:31;101432.34;;;19.87;100.00
60371;BME280;48550;40.588;49.684;2023-05-19T09:52:57;101433.94;;;19.98;100.00
60371;BME280;48550;40.588;49.684;2023-05-19T09:55:25;101435.06;;;19.92;100.00
60371;BME280;48550;40.588;49.684;2023-05-19T09:57:54;101422.56;;;19.76;100.00
60371;BME280;48550;40.588;49.684;2023-05-19T10:00:25;101426.16;;;19.46;100.00
60371;BME280;48550;40.588;49.684;2023-05-19T10:02:51;101427.53;;;19.54;100.00
60371;BME280;48550;40.588;49.684;2023-05-19T10:05:18;101422.88;;;19.64;100.00
60371;BME280;48550;40.588;49.684;2023-05-19T10:07:52;101433.22;;;19.73;100.00
60371;BME280;48550;40.588;49.684;2023-05-19T10:10:20;101425.34;;;19.41;100.00
60371;BME280;48550;40.588;49.684;2023-05-19T10:12:47;101428.88;;;19.31;100.00
60371;BME280;48550;40.588;49.684;2023-05-19T10:15:14;101427.50;;;19.18;100.00
60371;BME280;48550;40.588;49.684;2023-05-19T10:17:41;101420.97;;;19.19;100.00
60371;BME280;48550;40.588;49.684;2023-05-19T10:20:12;101423.97;;;18.97;100.00
60371;BME280;48550;40.588;49.684;2023-05-19T10:22:39;101433.78;;;18.93;100.00
60371;BME280;48550;40.588;49.684;2023-05-19T10:25:06;101427.78;;;18.86;100.00
60371;BME280;48550;40.588;49.684;2023-05-19T10:27:41;101425.88;;;18.87;100.00
60371;BME280;48550;40.588;49.684;2023-05-19T10:30:14;101432.38;;;18.65;100.00
60371;BME280;48550;40.588;49.684;2023-05-19T10:32:43;101433.66;;;18.58;100.00
60371;BME280;48550;40.588;49.684;2023-05-19T10:38:02;101426.97;;;18.81;100.00
60371;BME280;48550;40.588;49.684;2023-05-19T10:40:40;101424.50;;;18.69;100.00
60371;BME280;48550;40.588;49.684;2023-05-19T10:43:22;101433.22;;;18.76;100.00
60371;BME280;48550;40.588;49.684;2023-05-19T10:45:52;101426.44;;;18.89;100.00
60371;BME280;48550;40.588;49.684;2023-05-19T10:48:19;101420.16;;;18.83;100.00
60371;BME280;48550;40.588;49.684;2023-05-19T10:50:52;101422.06;;;18.93;100.00
60371;BME280;48550;40.588;49.684;2023-05-19T10:53:20;101420.72;;;18.80;100.00
60371;BME280;48550;40.588;49.684;2023-05-19T10:55:54;101423.16;;;18.82;100.00
60371;BME280;48550;40.588;49.684;2023-05-19T10:58:58;101415.81;;;18.92;100.00
60371;BME280;48550;40.588;49.684;2023-05-19T11:01:34;101425.88;;;18.87;100.00
60371;BME280;48550;40.588;49.684;2023-05-19T11:04:06;101429.13;;;18.73;100.00
60371;BME280;48550;40.588;49.684;2023-05-19T11:06:33;101426.84;;;18.55;100.00
60371;BME280;48550;40.588;49.684;2023-05-19T11:09:12;101426.59;;;18.52;100.00
60371;BME280;48550;40.588;49.684;2023-05-19T11:11:53;101434.47;;;18.53;100.00
60371;BME280;48550;40.588;49.684;2023-05-19T11:14:21;101418.38;;;18.36;100.00
60371;BME280;48550;40.588;49.684;2023-05-19T11:16:50;101424.75;;;18.62;100.00
60371;BME280;48550;40.588;49.684;2023-05-19T11:19:36;101417.59;;;18.51;100.00
60371;BME280;48550;40.588;49.684;2023-05-19T11:22:09;101413.91;;;18.67;100.00
60371;BME280;48550;40.588;49.684;2023-05-19T11:24:45;101404.09;;;18.61;100.00
60371;BME280;48550;40.588;49.684;2023-05-19T11:27:20;101406.28;;;18.64;100.00
60371;BME280;48550;40.588;49.684;2023-05-19T11:29:47;101414.16;;;18.71;100.00
60371;BME280;48550;40.588;49.684;2023-05-19T11:32:14;101407.94;;;18.91;100.00
60371;BME280;48550;40.588;49.684;2023-05-19T11:34:40;101404.66;;;18.94;100.00
60371;BME280;48550;40.588;49.684;2023-05-19T11:37:06;101403.00;;;18.67;100.00
60371;BME280;48550;40.588;49.684;2023-05-19T11:39:33;101417.72;;;18.87;100.00
60371;BME280;48550;40.588;49.684;2023-05-19T11:41:59;101413.09;;;18.97;100.00
60371;BME280;48550;40.588;49.684;2023-05-19T11:44:25;101407.63;;;18.67;100.00
60371;BME280;48550;40.588;49.684;2023-05-19T11:46:51;101409.56;;;18.77;100.00
60371;BME280;48550;40.588;49.684;2023-05-19T11:49:17;101417.44;;;18.73;100.00
60371;BME280;48550;40.588;49.684;2023-05-19T11:51:44;101416.91;;;18.76;100.00
60371;BME280;48550;40.588;49.684;2023-05-19T11:54:10;101416.63;;;18.67;100.00
60371;BME280;48550;40.588;49.684;2023-05-19T11:56:41;101410.63;;;18.65;100.00
60371;BME280;48550;40.588;49.684;2023-05-19T11:59:07;101410.06;;;18.63;100.00
60371;BME280;48550;40.588;49.684;2023-05-19T12:01:33;101409.72;;;18.55;100.00
60371;BME280;48550;40.588;49.684;2023-05-19T12:04:01;101407.28;;;18.53;100.00
60371;BME280;48550;40.588;49.684;2023-05-19T12:06:27;101403.75;;;18.53;100.00
60371;BME280;48550;40.588;49.684;2023-05-19T12:08:54;101414.59;;;18.48;100.00
60371;BME280;48550;40.588;49.684;2023-05-19T12:11:20;101410.00;;;18.53;100.00
60371;BME280;48550;40.588;49.684;2023-05-19T12:13:47;101413.53;;;18.54;100.00
60371;BME280;48550;40.588;49.684;2023-05-19T12:16:18;101418.69;;;18.55;100.00
60371;BME280;48550;40.588;49.684;2023-05-19T12:18:44;101421.22;;;18.62;100.00
60371;BME280;48550;40.588;49.684;2023-05-19T12:21:10;101415.22;;;18.60;100.00
60371;BME280;48550;40.588;49.684;2023-05-19T12:23:36;101420.31;;;18.46;100.00
60371;BME280;48550;40.588;49.684;2023-05-19T12:26:03;101420.56;;;18.39;100.00
60371;BME280;48550;40.588;49.684;2023-05-19T12:28:29;101416.22;;;18.38;100.00
60371;BME280;48550;40.588;49.684;2023-05-19T12:30:56;101421.44;;;18.55;100.00
60371;BME280;48550;40.588;49.684;2023-05-19T12:33:23;101418.69;;;18.45;100.00
60371;BME280;48550;40.588;49.684;2023-05-19T12:35:49;101425.47;;;18.42;100.00
60371;BME280;48550;40.588;49.684;2023-05-19T12:38:15;101425.56;;;18.63;100.00
60371;BME280;48550;40.588;49.684;2023-05-19T12:40:42;101435.69;;;18.93;100.00
60371;BME280;48550;40.588;49.684;2023-05-19T12:43:20;101425.34;;;18.95;100.00
60371;BME280;48550;40.588;49.684;2023-05-19T12:45:46;101432.69;;;18.99;100.00
60371;BME280;48550;40.588;49.684;2023-05-19T12:48:13;101446.88;;;18.24;100.00
60371;BME280;48550;40.588;49.684;2023-05-19T12:50:41;101447.84;;;17.97;100.00
60371;BME280;48550;40.588;49.684;2023-05-19T12:53:09;101463.72;;;18.26;100.00